createdAt,value
2024-04-16T00:01:28.349Z,100118.34
2024-04-16T00:03:57.916Z,100114.88
2024-04-16T00:06:24.903Z,100120.06
2024-04-16T00:08:54.334Z,100106.25
2024-04-16T00:11:21.674Z,100107.22
2024-04-16T00:13:51.199Z,100096.78
2024-04-16T00:16:18.015Z,100097.63
2024-04-16T00:18:47.788Z,100103.63
2024-04-16T00:21:14.612Z,100092.50
2024-04-16T00:23:43.952Z,100097.63
2024-04-16T00:26:10.664Z,100099.38
2024-04-16T00:28:40.054Z,100087.31
2024-04-16T00:31:06.860Z,100078.72
2024-04-16T00:33:36.170Z,100091.56
2024-04-16T00:36:03.091Z,100073.44
2024-04-16T00:38:32.393Z,100071.66
2024-04-16T00:40:59.068Z,100068.16
2024-04-16T00:43:28.602Z,100068.22
2024-04-16T00:45:56.721Z,100047.56
2024-04-16T00:48:31.080Z,100056.19
2024-04-16T00:50:59.291Z,100052.78
2024-04-16T00:53:31.153Z,100048.50
2024-04-16T00:55:58.397Z,100051.94
2024-04-16T00:58:29.851Z,100045.94
2024-04-16T01:00:56.650Z,100033.97
2024-04-16T01:03:26.033Z,100032.34
2024-04-16T01:05:53.070Z,100035.00
2024-04-16T01:08:22.408Z,100035.97
2024-04-16T01:10:49.152Z,100048.94
2024-04-16T01:13:18.521Z,100035.84
2024-04-16T01:15:45.202Z,100031.56
2024-04-16T01:18:15.358Z,100022.91
2024-04-16T01:20:42.260Z,100035.84
2024-04-16T01:23:11.648Z,100028.88
2024-04-16T01:25:38.463Z,100030.63
2024-04-16T01:28:08.139Z,100027.28
2024-04-16T01:30:34.835Z,100020.44
2024-04-16T01:33:04.175Z,100013.41
2024-04-16T01:35:30.869Z,100016.91
2024-04-16T01:38:00.142Z,100009.31
2024-04-16T01:40:26.872Z,100057.16
2024-04-16T01:42:56.294Z,100048.69
2024-04-16T01:45:22.992Z,100056.41
2024-04-16T01:47:52.391Z,100042.72
2024-04-16T01:50:19.558Z,100044.47
2024-04-16T01:52:48.970Z,100028.09
2024-04-16T01:55:15.689Z,100026.31
2024-04-16T01:57:44.996Z,100035.00
2024-04-16T02:00:12.086Z,100045.34
2024-04-16T02:02:41.837Z,100035.84
2024-04-16T02:05:08.951Z,100028.94
2024-04-16T02:07:38.340Z,100023.78
2024-04-16T02:10:07.198Z,100026.38
2024-04-16T02:12:36.490Z,100022.06
2024-04-16T02:15:03.211Z,100021.19
2024-04-16T02:17:32.603Z,100016.94
2024-04-16T02:19:59.319Z,100010.88
2024-04-16T02:22:28.600Z,100008.31
2024-04-16T02:24:55.296Z,100010.91
2024-04-16T02:27:24.567Z,100007.50
2024-04-16T02:29:51.252Z,99994.56
2024-04-16T02:32:20.654Z,99999.75
2024-04-16T02:34:49.827Z,99995.47
2024-04-16T02:37:19.138Z,99992.03
2024-04-16T02:39:45.806Z,99994.63
2024-04-16T02:42:15.072Z,99998.91
2024-04-16T02:44:41.784Z,99998.03
2024-04-16T02:47:11.059Z,99985.16
2024-04-16T02:49:37.769Z,99991.16
2024-04-16T02:52:07.362Z,99976.47
2024-04-16T02:54:34.040Z,99971.31
2024-04-16T02:57:03.359Z,99971.31
2024-04-16T02:59:30.036Z,99966.13
2024-04-16T03:01:59.392Z,99968.66
2024-04-16T03:04:26.145Z,99970.38
2024-04-16T03:06:55.416Z,99952.22
2024-04-16T03:09:23.988Z,99947.88
2024-04-16T03:11:53.576Z,99948.72
2024-04-16T03:14:20.241Z,99947.03
2024-04-16T03:16:49.561Z,99929.75
2024-04-16T03:19:16.595Z,99926.28
2024-04-16T03:21:45.914Z,99923.75
2024-04-16T03:24:12.627Z,99910.84
2024-04-16T03:26:41.930Z,99917.78
2024-04-16T03:29:08.673Z,99905.75
2024-04-16T03:31:38.027Z,99903.13
2024-04-16T03:34:04.791Z,99898.88
2024-04-16T03:36:34.157Z,99889.38
2024-04-16T03:39:03.442Z,99885.06
2024-04-16T03:41:32.753Z,99885.88
2024-04-16T03:44:02.022Z,99878.97
2024-04-16T03:46:29.006Z,99886.69
2024-04-16T03:48:58.355Z,99889.22
2024-04-16T03:51:25.041Z,99881.50
2024-04-16T03:53:54.296Z,99882.31
2024-04-16T03:56:20.996Z,99888.28
2024-04-16T03:59:16.266Z,99890.84
2024-04-16T04:01:44.196Z,99884.78
2024-04-16T04:04:13.754Z,99877.84
2024-04-16T04:06:40.564Z,99873.56
2024-04-16T04:09:09.941Z,99867.56
2024-04-16T04:11:39.215Z,99850.38
2024-04-16T04:14:05.904Z,99854.59
2024-04-16T04:16:35.295Z,99840.09
2024-04-16T04:19:02.060Z,99830.59
2024-04-16T04:21:31.666Z,99835.81
2024-04-16T04:23:58.335Z,99831.53
2024-04-16T04:26:27.679Z,99837.47
2024-04-16T04:28:56.550Z,99821.91
2024-04-16T04:31:25.846Z,99820.22
2024-04-16T04:33:52.542Z,99793.56
2024-04-16T04:36:22.016Z,99791.84
2024-04-16T04:38:48.781Z,99785.72
2024-04-16T04:41:18.421Z,99777.16
2024-04-16T04:43:45.099Z,99763.34
2024-04-16T04:46:14.937Z,99747.97
2024-04-16T04:48:41.686Z,99743.63
2024-04-16T04:51:11.208Z,99759.09
2024-04-16T04:53:40.908Z,99756.50
2024-04-16T04:56:10.598Z,99752.06
2024-04-16T04:58:37.454Z,99754.66
2024-04-16T05:01:07.338Z,99750.22
2024-04-16T05:03:34.179Z,99739.91
2024-04-16T05:06:03.506Z,99765.69
2024-04-16T05:08:30.256Z,99758.72
2024-04-16T05:11:00.674Z,99758.63
2024-04-16T05:13:27.549Z,99748.19
2024-04-16T05:15:56.904Z,99757.72
2024-04-16T05:18:23.969Z,99767.03
2024-04-16T05:20:53.390Z,99766.94
2024-04-16T05:23:20.126Z,99760.91
2024-04-16T05:25:58.866Z,99768.53
2024-04-16T05:28:25.673Z,99769.25
2024-04-16T05:30:55.002Z,99776.81
2024-04-16T05:33:21.745Z,99785.50
2024-04-16T05:35:51.049Z,99794.84
2024-04-16T05:38:17.738Z,99793.16
2024-04-16T05:40:47.094Z,99798.19
2024-04-16T05:43:13.812Z,99799.84
2024-04-16T05:45:44.068Z,99798.75
2024-04-16T05:48:10.819Z,99798.56
2024-04-16T05:50:40.218Z,99804.63
2024-04-16T05:53:07.374Z,99814.13
2024-04-16T05:55:36.760Z,99817.50
2024-04-16T05:58:03.782Z,99809.63
2024-04-16T06:00:33.158Z,99820.69
2024-04-16T06:02:59.910Z,99812.97
2024-04-16T06:05:29.975Z,99833.78
2024-04-16T06:07:59.585Z,99826.50
2024-04-16T06:10:29.015Z,99836.72
2024-04-16T06:12:55.749Z,99841.06
2024-04-16T06:15:25.081Z,99838.53
2024-04-16T06:17:51.937Z,99822.75
2024-04-16T06:20:21.339Z,99827.94
2024-04-16T06:22:49.189Z,99822.69
2024-04-16T06:25:19.397Z,99836.47
2024-04-16T06:27:48.581Z,99847.41
2024-04-16T06:30:17.962Z,99824.16
2024-04-16T06:32:44.715Z,99847.28
2024-04-16T06:35:14.446Z,99843.69
2024-04-16T06:37:41.697Z,99861.84
2024-04-16T06:40:11.596Z,99873.34
2024-04-16T06:42:38.559Z,99868.91
2024-04-16T06:45:08.494Z,99876.75
2024-04-16T06:47:35.627Z,99886.59
2024-04-16T06:50:06.311Z,99899.88
2024-04-16T06:52:33.138Z,99897.25
2024-04-16T06:55:02.805Z,99901.47
2024-04-16T06:57:29.491Z,99902.16
2024-04-16T06:59:59.144Z,99900.56
2024-04-16T07:02:26.291Z,99912.09
2024-04-16T07:04:55.603Z,99929.25
2024-04-16T07:07:24.983Z,99910.16
2024-04-16T07:09:51.698Z,99926.72
2024-04-16T07:12:21.017Z,99934.38
2024-04-16T07:14:50.297Z,99936.03
2024-04-16T07:17:17.001Z,99927.19
2024-04-16T07:19:46.379Z,99935.72
2024-04-16T07:22:13.148Z,99934.06
2024-04-16T07:24:42.603Z,99918.28
2024-04-16T07:27:09.357Z,99904.47
2024-04-16T07:29:41.217Z,99941.31
2024-04-16T07:32:08.094Z,99939.78
2024-04-16T07:34:37.891Z,99935.97
2024-04-16T07:37:04.802Z,99929.25
2024-04-16T07:39:34.265Z,99948.91
2024-04-16T07:42:00.989Z,99929.97
2024-04-16T07:44:30.326Z,99940.81
2024-04-16T07:46:57.179Z,99929.84
2024-04-16T07:49:26.607Z,99940.94
2024-04-16T07:51:53.295Z,99935.84
2024-04-16T07:54:22.613Z,99948.09
2024-04-16T07:56:49.876Z,99964.44
2024-04-16T07:59:19.388Z,99963.72
2024-04-16T08:01:46.227Z,99971.50
2024-04-16T08:04:15.761Z,99945.78
2024-04-16T08:06:42.567Z,99989.88
2024-04-16T08:09:12.413Z,99990.66
2024-04-16T08:11:39.213Z,100003.00
2024-04-16T08:14:09.617Z,100040.38
2024-04-16T08:16:36.575Z,100048.28
2024-04-16T08:19:06.029Z,100068.34
2024-04-16T08:21:32.799Z,100060.78
2024-04-16T08:24:02.417Z,100069.41
2024-04-16T08:26:29.090Z,100066.09
2024-04-16T08:28:58.430Z,100075.81
2024-04-16T08:31:26.758Z,100079.09
2024-04-16T08:33:57.128Z,100075.38
2024-04-16T08:36:23.917Z,100090.03
2024-04-16T08:38:53.358Z,100093.78
2024-04-16T08:41:20.213Z,100091.50
2024-04-16T08:43:52.302Z,100083.94
2024-04-16T08:46:20.310Z,100102.66
2024-04-16T08:48:50.654Z,100098.84
2024-04-16T08:51:18.852Z,100096.06
2024-04-16T08:53:50.883Z,100111.38
2024-04-16T08:56:18.816Z,100120.25
2024-04-16T08:58:48.193Z,100122.63
2024-04-16T09:01:20.595Z,100107.91
2024-04-16T09:03:51.139Z,100120.03
2024-04-16T09:06:21.151Z,100130.25
2024-04-16T09:09:00.846Z,100136.94
2024-04-16T09:11:35.639Z,100146.66
2024-04-16T09:14:02.320Z,100147.66
2024-04-16T09:16:33.430Z,100161.75
2024-04-16T09:19:11.491Z,100134.63
2024-04-16T09:21:41.865Z,100128.00
2024-04-16T09:24:09.574Z,100159.41
2024-04-16T09:26:39.717Z,100162.38
2024-04-16T09:29:06.946Z,100167.66
2024-04-16T09:31:36.308Z,100175.03
2024-04-16T09:34:09.184Z,100181.97
2024-04-16T09:36:39.076Z,100189.34
2024-04-16T09:39:05.802Z,100182.78
2024-04-16T09:41:35.181Z,100199.00
2024-04-16T09:44:03.368Z,100189.50
2024-04-16T09:46:33.778Z,100201.09
2024-04-16T09:49:00.723Z,100199.22
2024-04-16T09:51:30.547Z,100213.06
2024-04-16T09:53:59.128Z,100207.75
2024-04-16T09:56:34.415Z,100217.44
2024-04-16T09:59:02.491Z,100220.19
2024-04-16T10:01:32.823Z,100226.88
2024-04-16T10:03:59.659Z,100231.81
2024-04-16T10:06:29.219Z,100236.38
2024-04-16T10:08:56.572Z,100249.69
2024-04-16T10:11:31.678Z,100243.44
2024-04-16T10:13:59.820Z,100247.81
2024-04-16T10:16:30.440Z,100248.16
2024-04-16T10:18:58.211Z,100264.84
2024-04-16T10:21:29.553Z,100266.09
2024-04-16T10:24:00.981Z,100252.78
2024-04-16T10:26:30.560Z,100244.06
2024-04-16T10:28:58.044Z,100272.88
2024-04-16T10:31:35.538Z,100272.16
2024-04-16T10:34:02.642Z,100275.22
2024-04-16T10:36:32.414Z,100288.13
2024-04-16T10:38:59.316Z,100288.94
2024-04-16T10:41:30.162Z,100286.50
2024-04-16T10:43:57.992Z,100287.44
2024-04-16T10:46:27.961Z,100285.63
2024-04-16T10:48:56.849Z,100296.81
2024-04-16T10:51:26.186Z,100294.97
2024-04-16T10:53:52.862Z,100309.75
2024-04-16T10:56:22.307Z,100311.25
2024-04-16T10:58:50.100Z,100307.00
2024-04-16T11:01:19.585Z,100316.88
2024-04-16T11:03:46.419Z,100317.06
2024-04-16T11:06:15.709Z,100320.38
2024-04-16T11:08:42.423Z,100323.09
2024-04-16T11:11:14.976Z,100326.06
2024-04-16T11:13:41.977Z,100318.59
2024-04-16T11:16:12.494Z,100322.28
2024-04-16T11:18:39.538Z,100324.66
2024-04-16T11:21:08.923Z,100334.66
2024-04-16T11:23:35.663Z,100344.78
2024-04-16T11:26:05.234Z,100340.09
2024-04-16T11:28:31.967Z,100358.19
2024-04-16T11:31:02.755Z,100352.16
2024-04-16T11:33:36.525Z,100343.97
2024-04-16T11:36:13.656Z,100351.19
2024-04-16T11:38:41.961Z,100351.06
2024-04-16T11:41:13.745Z,100369.13
2024-04-16T11:43:42.972Z,100376.84
2024-04-16T11:46:16.058Z,100374.88
2024-04-16T11:48:43.857Z,100380.22
2024-04-16T11:51:14.216Z,100381.41
2024-04-16T11:53:41.667Z,100397.34
2024-04-16T11:56:13.332Z,100384.81
2024-04-16T11:58:43.515Z,100391.78
2024-04-16T12:01:14.419Z,100387.53
2024-04-16T12:03:41.358Z,100391.25
2024-04-16T12:06:10.835Z,100398.69
2024-04-16T12:08:37.564Z,100397.13
2024-04-16T12:11:07.307Z,100400.09
2024-04-16T12:13:34.268Z,100421.22
2024-04-16T12:16:04.232Z,100414.94
2024-04-16T12:18:33.565Z,100418.72
2024-04-16T12:21:00.366Z,100423.31
2024-04-16T12:23:29.671Z,100430.34
2024-04-16T12:25:56.553Z,100432.72
2024-04-16T12:28:25.990Z,100431.38
2024-04-16T12:30:55.607Z,100445.09
2024-04-16T12:33:22.375Z,100448.38
2024-04-16T12:35:51.776Z,100453.41
2024-04-16T12:38:18.577Z,100453.00
2024-04-16T12:40:48.028Z,100456.88
2024-04-16T12:43:16.290Z,100460.94
2024-04-16T12:45:45.667Z,100461.38
2024-04-16T12:48:20.012Z,100478.28
2024-04-16T12:50:50.261Z,100486.41
2024-04-16T12:53:16.976Z,100483.91
2024-04-16T12:55:46.344Z,100490.75
2024-04-16T12:58:14.700Z,100486.81
2024-04-16T13:00:44.186Z,100485.16
2024-04-16T13:03:12.942Z,100505.28
2024-04-16T13:05:42.269Z,100499.13
2024-04-16T13:08:09.554Z,100508.84
2024-04-16T13:10:39.625Z,100520.75
2024-04-16T13:13:06.387Z,100518.72
2024-04-16T13:15:36.014Z,100524.91
2024-04-16T13:18:03.378Z,100518.06
2024-04-16T13:20:32.812Z,100528.50
2024-04-16T13:22:59.737Z,100531.47
2024-04-16T13:25:29.078Z,100535.88
2024-04-16T13:27:55.775Z,100532.28
2024-04-16T13:30:25.075Z,100537.91
2024-04-16T13:32:57.255Z,100548.16
2024-04-16T13:35:27.372Z,100548.34
2024-04-16T13:37:54.378Z,100538.81
2024-04-16T13:40:26.065Z,100560.66
2024-04-16T13:42:53.004Z,100559.75
2024-04-16T13:45:22.332Z,100567.94
2024-04-16T13:47:49.077Z,100570.31
2024-04-16T13:50:18.590Z,100564.47
2024-04-16T13:52:48.798Z,100566.66
2024-04-16T13:55:18.543Z,100575.22
2024-04-16T13:57:45.400Z,100571.84
2024-04-16T14:00:15.878Z,100579.88
2024-04-16T14:02:42.785Z,100577.09
2024-04-16T14:05:12.135Z,100580.19
2024-04-16T14:07:38.966Z,100591.56
2024-04-16T14:10:08.510Z,100575.44
2024-04-16T14:12:35.316Z,100589.47
2024-04-16T14:15:04.743Z,100588.81
2024-04-16T14:17:31.525Z,100591.09
2024-04-16T14:20:01.315Z,100595.78
2024-04-16T14:22:28.127Z,100595.94
2024-04-16T14:24:57.660Z,100596.91
2024-04-16T14:27:25.338Z,100603.38
2024-04-16T14:29:54.797Z,100610.25
2024-04-16T14:32:21.679Z,100614.69
2024-04-16T14:34:51.172Z,100616.09
2024-04-16T14:37:17.890Z,100621.09
2024-04-16T14:39:47.541Z,100627.06
2024-04-16T14:42:14.245Z,100632.06
2024-04-16T14:44:43.600Z,100637.03
2024-04-16T14:47:10.387Z,100647.09
2024-04-16T14:49:39.828Z,100651.75
2024-04-16T14:52:09.604Z,100653.38
2024-04-16T14:54:39.878Z,100655.25
2024-04-16T14:57:06.674Z,100656.25
2024-04-16T14:59:35.940Z,100660.72
2024-04-16T15:02:02.888Z,100662.38
2024-04-16T15:04:33.388Z,100661.28
2024-04-16T15:07:00.890Z,100665.88
2024-04-16T15:09:30.566Z,100668.03
2024-04-16T15:11:57.286Z,100674.97
2024-04-16T15:14:26.679Z,100677.94
2024-04-16T15:16:54.628Z,100689.41
2024-04-16T15:19:24.036Z,100684.47
2024-04-16T15:21:50.837Z,100682.66
2024-04-16T15:24:20.187Z,100687.66
2024-04-16T15:26:46.948Z,100695.72
2024-04-16T15:29:16.274Z,100700.22
2024-04-16T15:31:43.088Z,100700.94
2024-04-16T15:34:12.420Z,100698.34
2024-04-16T15:36:39.099Z,100706.88
2024-04-16T15:39:08.594Z,100706.81
2024-04-16T15:41:35.352Z,100710.25
2024-04-16T15:44:04.723Z,100710.16
2024-04-16T15:46:31.580Z,100708.53
2024-04-16T15:49:00.943Z,100717.25
2024-04-16T15:51:27.658Z,100718.28
2024-04-16T15:53:57.002Z,100726.75
2024-04-16T15:56:23.925Z,100713.59
2024-04-16T15:58:53.343Z,100724.00
2024-04-16T16:01:20.130Z,100731.13
2024-04-16T16:03:50.984Z,100732.56
2024-04-16T16:06:17.761Z,100732.69
2024-04-16T16:08:48.457Z,100741.25
2024-04-16T16:11:15.219Z,100737.03
2024-04-16T16:13:44.806Z,100753.50
2024-04-16T16:16:12.511Z,100752.50
2024-04-16T16:18:42.252Z,100756.34
2024-04-16T16:21:10.036Z,100763.28
2024-04-16T16:23:39.692Z,100760.56
2024-04-16T16:26:09.410Z,100757.19
2024-04-16T16:28:39.323Z,100771.13
2024-04-16T16:31:06.058Z,100784.88
2024-04-16T16:33:35.534Z,100772.78
2024-04-16T16:36:02.232Z,100772.56
2024-04-16T16:38:32.165Z,100782.91
2024-04-16T16:40:59.052Z,100790.75
2024-04-16T16:43:29.486Z,100785.59
2024-04-16T16:45:56.225Z,100791.91
2024-04-16T16:48:25.671Z,100790.97
2024-04-16T16:50:53.508Z,100790.00
2024-04-16T16:53:22.816Z,100803.78
2024-04-16T16:55:52.937Z,100806.47
2024-04-16T16:58:24.005Z,100805.50
2024-04-16T17:00:50.780Z,100808.06
2024-04-16T17:03:22.600Z,100801.28
2024-04-16T17:05:49.370Z,100814.34
2024-04-16T17:08:18.831Z,100824.72
2024-04-16T17:10:46.970Z,100823.03
2024-04-16T17:13:18.442Z,100827.44
2024-04-16T17:15:45.299Z,100827.44
2024-04-16T17:18:14.709Z,100840.56
2024-04-16T17:20:41.421Z,100853.47
2024-04-16T17:23:10.938Z,100836.31
2024-04-16T17:25:37.743Z,100845.88
2024-04-16T17:28:07.360Z,100845.09
2024-04-16T17:30:34.071Z,100861.50
2024-04-16T17:33:03.489Z,100853.75
2024-04-16T17:35:30.265Z,100853.75
2024-04-16T17:37:59.701Z,100859.81
2024-04-16T17:40:27.348Z,100863.22
2024-04-16T17:42:56.664Z,100860.69
2024-04-16T17:45:23.354Z,100863.22
2024-04-16T17:47:52.803Z,100871.88
2024-04-16T17:50:19.559Z,100884.03
2024-04-16T17:52:49.489Z,100874.56
2024-04-16T17:55:16.304Z,100885.75
2024-04-16T17:57:45.621Z,100888.47
2024-04-16T18:00:15.541Z,100887.53
2024-04-16T18:02:48.732Z,100902.28
2024-04-16T18:05:15.576Z,100905.72
2024-04-16T18:07:45.415Z,100904.00
2024-04-16T18:10:12.318Z,100917.94
2024-04-16T18:12:41.722Z,100924.06
2024-04-16T18:15:10.063Z,100924.06
2024-04-16T18:17:40.251Z,100931.03
2024-04-16T18:20:07.503Z,100932.78
2024-04-16T18:22:36.933Z,100933.66
2024-04-16T18:25:03.828Z,100939.69
2024-04-16T18:27:36.082Z,100944.03
2024-04-16T18:30:03.201Z,100949.25
2024-04-16T18:32:32.543Z,100953.56
2024-04-16T18:34:59.273Z,100953.56
2024-04-16T18:37:28.609Z,100955.31
2024-04-16T18:39:55.307Z,100958.78
2024-04-16T18:42:24.645Z,100964.00
2024-04-16T18:44:51.714Z,100968.31
2024-04-16T18:47:23.117Z,100970.91
2024-04-16T18:49:50.109Z,100979.56
2024-04-16T18:52:19.785Z,100980.41
2024-04-16T18:54:46.728Z,100996.84
2024-04-16T18:57:16.027Z,100986.47
2024-04-16T18:59:44.152Z,100993.38
2024-04-16T19:02:13.537Z,101001.16
2024-04-16T19:04:40.799Z,100993.38
2024-04-16T19:07:10.204Z,101008.94
2024-04-16T19:09:36.888Z,101011.53
2024-04-16T19:12:06.387Z,101019.28
2024-04-16T19:14:33.049Z,101021.00
2024-04-16T19:17:02.475Z,101023.56
2024-04-16T19:19:30.194Z,101034.78
2024-04-16T19:22:00.253Z,101029.63
2024-04-16T19:24:27.544Z,101041.69
2024-04-16T19:26:56.912Z,101040.88
2024-04-16T19:29:23.617Z,101046.03
2024-04-16T19:31:53.039Z,101043.47
2024-04-16T19:34:19.780Z,101055.56
2024-04-16T19:36:49.760Z,101046.91
2024-04-16T19:39:16.415Z,101054.69
2024-04-16T19:41:45.713Z,101052.06
2024-04-16T19:44:12.407Z,101060.75
2024-04-16T19:46:41.725Z,101068.50
2024-04-16T19:49:08.846Z,101066.78
2024-04-16T19:51:38.151Z,101061.59
2024-04-16T19:54:05.072Z,101066.75
2024-04-16T19:56:34.572Z,101072.72
2024-04-16T19:59:03.031Z,101071.88
2024-04-16T20:01:32.342Z,101082.19
2024-04-16T20:03:59.686Z,101077.03
2024-04-16T20:06:29.289Z,101076.16
2024-04-16T20:08:56.081Z,101079.59
2024-04-16T20:11:27.354Z,101084.88
2024-04-16T20:13:56.737Z,101086.47
2024-04-16T20:16:27.467Z,101090.81
2024-04-16T20:18:55.898Z,101094.28
2024-04-16T20:21:26.398Z,101085.53
2024-04-16T20:23:53.497Z,101097.66
2024-04-16T20:26:22.902Z,101103.69
2024-04-16T20:28:50.016Z,101104.59
2024-04-16T20:31:19.603Z,101110.69
2024-04-16T20:33:47.446Z,101105.44
2024-04-16T20:36:16.738Z,101110.56
2024-04-16T20:38:43.423Z,101119.19
2024-04-16T20:41:12.751Z,101121.00
2024-04-16T20:43:39.733Z,101121.75
2024-04-16T20:46:11.332Z,101131.34
2024-04-16T20:48:38.281Z,101139.13
2024-04-16T20:51:09.042Z,101135.66
2024-04-16T20:53:36.604Z,101139.88
2024-04-16T20:56:06.228Z,101132.81
2024-04-16T20:58:33.176Z,101129.41
2024-04-16T21:01:02.886Z,101144.97
2024-04-16T21:03:29.686Z,101137.03
2024-04-16T21:05:59.818Z,101139.81
2024-04-16T21:08:26.493Z,101140.63
2024-04-16T21:10:55.973Z,101141.44
2024-04-16T21:13:22.712Z,101141.47
2024-04-16T21:16:00.311Z,101132.91
2024-04-16T21:18:27.130Z,101136.38
2024-04-16T21:20:56.537Z,101139.78
2024-04-16T21:23:23.348Z,101139.75
2024-04-16T21:25:53.129Z,101140.47
2024-04-16T21:28:20.041Z,101145.66
2024-04-16T21:30:49.483Z,101140.47
2024-04-16T21:33:16.447Z,101139.66
2024-04-16T21:35:45.731Z,101144.72
2024-04-16T21:38:12.429Z,101145.63
2024-04-16T21:40:41.846Z,101146.31
2024-04-16T21:43:08.547Z,101147.28
2024-04-16T21:45:38.002Z,101152.47
2024-04-16T21:48:04.856Z,101154.31
2024-04-16T21:50:34.170Z,101152.53
2024-04-16T21:53:01.011Z,101155.03
2024-04-16T21:55:31.431Z,101158.34
2024-04-16T21:58:00.062Z,101162.69
2024-04-16T22:00:29.392Z,101164.22
2024-04-16T22:02:58.268Z,101165.13
2024-04-16T22:05:27.667Z,101166.03
2024-04-16T22:07:59.036Z,101173.81
2024-04-16T22:10:28.859Z,101172.09
2024-04-16T22:12:55.900Z,101182.44
2024-04-16T22:16:18.880Z,101175.50
2024-04-16T22:19:42.060Z,101184.09
2024-04-16T22:23:05.104Z,101177.94
2024-04-16T22:25:34.388Z,101178.03
2024-04-16T22:28:01.057Z,101182.41
2024-04-16T22:30:30.357Z,101188.44
2024-04-16T22:32:57.335Z,101190.09
2024-04-16T22:35:26.701Z,101194.34
2024-04-16T22:37:53.429Z,101195.97
2024-04-16T22:40:22.721Z,101202.88
2024-04-16T22:42:49.364Z,101192.47
2024-04-16T22:45:18.757Z,101203.72
2024-04-16T22:47:45.519Z,101204.53
2024-04-16T22:50:14.920Z,101201.16
2024-04-16T22:52:41.598Z,101204.53
2024-04-16T22:55:10.907Z,101193.28
2024-04-16T22:57:37.583Z,101189.00
2024-04-16T23:00:07.771Z,101201.00
2024-04-16T23:02:34.537Z,101202.75
2024-04-16T23:05:03.996Z,101198.41
2024-04-16T23:07:30.803Z,101200.03
2024-04-16T23:10:00.117Z,101196.50
2024-04-16T23:12:26.845Z,101203.47
2024-04-16T23:14:56.160Z,101207.00
2024-04-16T23:17:22.926Z,101202.66
2024-04-16T23:19:52.460Z,101198.31
2024-04-16T23:22:19.308Z,101200.03
2024-04-16T23:24:51.675Z,101203.44
2024-04-16T23:27:18.274Z,101206.91
2024-04-16T23:29:47.576Z,101211.19
2024-04-16T23:32:14.319Z,101199.06
2024-04-16T23:34:43.687Z,101201.59
2024-04-16T23:37:12.472Z,101197.28
2024-04-16T23:39:44.549Z,101194.63
2024-04-16T23:42:11.449Z,101200.66
2024-04-16T23:44:40.791Z,101199.72
2024-04-16T23:47:07.859Z,101197.78
2024-04-16T23:49:37.278Z,101196.81
2024-04-16T23:52:04.126Z,101187.25
2024-04-16T23:54:33.445Z,101190.63
2024-04-16T23:57:00.269Z,101185.34
2024-04-16T23:59:29.550Z,101187.88
